createdAt,value
2022-12-24T00:01:37.977Z,10.20
2022-12-24T00:04:06.661Z,11.20
2022-12-24T00:06:35.265Z,9.60
2022-12-24T00:09:03.793Z,10.57
2022-12-24T00:11:32.271Z,9.43
2022-12-24T00:14:02.149Z,14.73
2022-12-24T00:16:30.642Z,15.27
2022-12-24T00:18:59.050Z,11.50
2022-12-24T00:21:27.569Z,12.10
2022-12-24T00:23:55.973Z,11.27
2022-12-24T00:26:24.516Z,14.20
2022-12-24T00:28:53.090Z,16.40
2022-12-24T00:31:23.127Z,17.80
2022-12-24T00:33:51.813Z,18.83
2022-12-24T00:36:21.230Z,19.03
2022-12-24T00:38:49.656Z,19.63
2022-12-24T00:41:29.422Z,18.60
2022-12-24T00:43:59.463Z,19.87
2022-12-24T00:46:31.312Z,23.70
2022-12-24T00:48:59.923Z,19.97
2022-12-24T00:51:28.762Z,25.50
2022-12-24T00:53:57.398Z,25.00
2022-12-24T00:56:26.150Z,21.50
2022-12-24T00:58:55.397Z,19.87
2022-12-24T01:01:24.398Z,19.93
2022-12-24T01:04:15.874Z,20.93
2022-12-24T01:06:43.576Z,20.23
2022-12-24T01:09:12.346Z,17.67
2022-12-24T01:11:40.780Z,17.50
2022-12-24T01:14:09.239Z,20.70
2022-12-24T01:16:37.723Z,19.20
2022-12-24T01:19:07.567Z,16.57
2022-12-24T01:21:36.029Z,19.37
2022-12-24T01:24:04.592Z,18.87
2022-12-24T01:26:33.018Z,15.83
2022-12-24T01:29:01.560Z,17.33
2022-12-24T01:31:30.021Z,18.10
2022-12-24T01:33:58.820Z,28.13
2022-12-24T01:36:28.868Z,26.97
2022-12-24T01:38:57.433Z,22.37
2022-12-24T01:41:43.549Z,26.23
2022-12-24T01:44:33.514Z,27.30
2022-12-24T01:47:10.105Z,22.00
2022-12-24T01:49:43.686Z,23.70
2022-12-24T01:52:18.332Z,24.70
2022-12-24T01:54:52.104Z,21.87
2022-12-24T01:57:25.117Z,22.13
2022-12-24T01:59:58.142Z,19.03
2022-12-24T02:02:27.671Z,20.40
2022-12-24T02:05:03.362Z,16.17
2022-12-24T02:07:33.824Z,17.00
2022-12-24T02:10:04.102Z,14.13
2022-12-24T02:12:36.641Z,11.43
2022-12-24T02:15:06.885Z,10.80
2022-12-24T02:17:44.328Z,8.43
2022-12-24T02:20:48.978Z,9.20
2022-12-24T02:23:40.946Z,7.90
2022-12-24T02:26:28.660Z,8.33
2022-12-24T02:29:23.760Z,7.83
2022-12-24T02:32:00.583Z,7.03
2022-12-24T02:34:35.010Z,7.70
2022-12-24T02:37:08.298Z,8.07
2022-12-24T02:39:44.472Z,8.07
2022-12-24T02:42:17.181Z,7.00
2022-12-24T02:44:50.682Z,7.10
2022-12-24T02:47:23.386Z,8.50
2022-12-24T02:49:51.926Z,8.43
2022-12-24T02:52:34.075Z,11.03
2022-12-24T02:55:07.610Z,9.83
2022-12-24T02:57:56.007Z,8.90
2022-12-24T03:00:25.585Z,9.80
2022-12-24T03:03:21.136Z,8.80
2022-12-24T03:05:53.085Z,8.60
2022-12-24T03:08:33.958Z,8.63
2022-12-24T03:11:06.856Z,9.40
2022-12-24T03:13:35.983Z,9.27
2022-12-24T03:16:07.846Z,10.00
2022-12-24T03:18:40.266Z,7.43
2022-12-24T03:21:13.577Z,8.90
2022-12-24T03:23:42.360Z,7.30
2022-12-24T03:26:13.665Z,8.53
2022-12-24T03:28:43.788Z,7.47
2022-12-24T03:31:12.775Z,6.77
2022-12-24T03:33:43.156Z,6.63
2022-12-24T03:36:12.285Z,6.90
2022-12-24T03:38:41.162Z,6.80
2022-12-24T03:41:09.957Z,5.77
2022-12-24T03:43:38.652Z,5.53
2022-12-24T03:46:08.186Z,5.07
2022-12-24T03:48:37.374Z,5.83
2022-12-24T03:51:07.639Z,6.70
2022-12-24T03:53:36.168Z,5.63
2022-12-24T03:56:04.896Z,5.33
2022-12-24T03:58:33.277Z,4.10
2022-12-24T04:01:01.832Z,6.20
2022-12-24T04:03:30.481Z,4.63
2022-12-24T04:06:04.260Z,4.97
2022-12-24T04:08:34.485Z,4.93
2022-12-24T04:11:09.352Z,4.00
2022-12-24T04:13:38.725Z,5.70
2022-12-24T04:16:10.072Z,3.73
2022-12-24T04:18:39.512Z,5.53
2022-12-24T04:21:08.585Z,4.93
2022-12-24T04:23:39.628Z,3.83
2022-12-24T04:26:10.179Z,4.57
2022-12-24T04:28:39.356Z,3.90
2022-12-24T04:31:09.784Z,4.03
2022-12-24T04:33:38.789Z,4.53
2022-12-24T04:36:08.408Z,3.63
2022-12-24T04:38:38.462Z,4.20
2022-12-24T04:41:08.857Z,6.43
2022-12-24T04:43:37.541Z,5.37
2022-12-24T04:46:08.022Z,6.73
2022-12-24T04:48:36.878Z,4.83
2022-12-24T04:51:06.445Z,3.87
2022-12-24T04:53:35.810Z,3.27
2022-12-24T04:56:06.394Z,5.60
2022-12-24T04:58:36.966Z,4.17
2022-12-24T05:01:06.549Z,6.93
2022-12-24T05:03:35.908Z,5.97
2022-12-24T05:06:04.745Z,9.50
2022-12-24T05:08:34.035Z,3.30
2022-12-24T05:11:03.811Z,6.33
2022-12-24T05:13:40.676Z,6.90
2022-12-24T05:16:15.024Z,7.20
2022-12-24T05:18:43.700Z,5.87
2022-12-24T05:21:14.890Z,4.43
2022-12-24T05:24:00.909Z,4.23
2022-12-24T05:26:32.349Z,5.50
2022-12-24T05:29:03.684Z,5.27
2022-12-24T05:31:34.868Z,6.37
2022-12-24T05:34:03.834Z,6.67
2022-12-24T05:36:32.801Z,6.30
2022-12-24T05:39:01.725Z,4.63
2022-12-24T05:41:30.215Z,4.93
2022-12-24T05:43:58.693Z,5.20
2022-12-24T05:46:28.707Z,7.03
2022-12-24T05:48:57.271Z,4.87
2022-12-24T05:51:26.076Z,3.90
2022-12-24T05:53:54.641Z,7.17
2022-12-24T05:56:25.176Z,6.93
2022-12-24T05:58:55.148Z,2.93
2022-12-24T06:01:24.525Z,4.10
2022-12-24T06:03:54.997Z,6.80
2022-12-24T06:06:25.254Z,4.57
2022-12-24T06:08:55.156Z,4.97
2022-12-24T06:11:25.772Z,6.27
2022-12-24T06:13:54.982Z,8.97
2022-12-24T06:16:24.971Z,5.60
2022-12-24T06:18:55.721Z,6.20
2022-12-24T06:21:24.378Z,4.17
2022-12-24T06:23:52.950Z,4.97
2022-12-24T06:26:24.205Z,5.63
2022-12-24T06:28:53.420Z,9.03
2022-12-24T06:31:24.886Z,4.40
2022-12-24T06:33:55.539Z,4.57
2022-12-24T06:36:26.506Z,6.03
2022-12-24T06:38:56.232Z,7.83
2022-12-24T06:41:25.431Z,6.77
2022-12-24T06:43:54.908Z,3.77
2022-12-24T06:46:23.718Z,5.50
2022-12-24T06:48:52.474Z,6.33
2022-12-24T06:51:22.529Z,7.27
2022-12-24T06:53:51.931Z,5.63
2022-12-24T06:56:23.703Z,7.50
2022-12-24T06:58:52.336Z,6.80
2022-12-24T07:01:22.299Z,4.33
2022-12-24T07:03:51.174Z,6.47
2022-12-24T07:06:25.468Z,9.40
2022-12-24T07:08:53.955Z,4.93
2022-12-24T07:11:22.832Z,7.03
2022-12-24T07:13:51.251Z,6.37
2022-12-24T07:16:19.838Z,9.10
2022-12-24T07:18:50.168Z,10.60
2022-12-24T07:21:18.563Z,6.30
2022-12-24T07:23:51.089Z,5.60
2022-12-24T07:26:19.637Z,6.00
2022-12-24T07:28:48.070Z,7.53
2022-12-24T07:31:16.512Z,5.07
2022-12-24T07:33:44.914Z,3.80
2022-12-24T07:36:20.281Z,4.37
2022-12-24T07:38:50.483Z,7.10
2022-12-24T07:41:18.930Z,4.97
2022-12-24T07:43:47.424Z,3.37
2022-12-24T07:46:15.980Z,5.80
2022-12-24T07:48:44.527Z,3.10
2022-12-24T07:51:12.883Z,3.13
2022-12-24T07:53:47.889Z,3.30
2022-12-24T07:56:18.476Z,4.40
2022-12-24T07:58:46.991Z,3.50
2022-12-24T08:01:15.482Z,3.23
2022-12-24T08:03:44.114Z,3.20
2022-12-24T08:06:13.327Z,2.83
2022-12-24T08:08:41.863Z,3.10
2022-12-24T08:11:10.528Z,3.50
2022-12-24T08:13:40.665Z,3.47
2022-12-24T08:16:09.214Z,3.37
2022-12-24T08:18:37.785Z,3.93
2022-12-24T08:21:08.742Z,4.37
2022-12-24T08:23:37.339Z,4.80
2022-12-24T08:26:08.730Z,4.97
2022-12-24T08:28:37.208Z,4.40
2022-12-24T08:31:08.274Z,5.43
2022-12-24T08:33:36.957Z,4.73
2022-12-24T08:36:05.841Z,5.80
2022-12-24T08:38:34.431Z,5.47
2022-12-24T08:41:02.944Z,6.70
2022-12-24T08:43:31.800Z,7.13
2022-12-24T08:46:05.165Z,7.10
2022-12-24T08:48:35.835Z,6.97
2022-12-24T08:51:09.144Z,7.03
2022-12-24T08:53:38.189Z,8.53
2022-12-24T08:56:09.132Z,6.97
2022-12-24T08:58:38.197Z,7.60
2022-12-24T09:01:13.872Z,7.13
2022-12-24T09:03:44.596Z,9.73
2022-12-24T09:06:13.603Z,10.97
2022-12-24T09:08:42.066Z,10.43
2022-12-24T09:11:12.854Z,9.00
2022-12-24T09:13:41.788Z,12.33
2022-12-24T09:16:11.278Z,11.07
2022-12-24T09:18:40.566Z,7.77
2022-12-24T09:21:14.668Z,7.03
2022-12-24T09:23:44.566Z,7.40
2022-12-24T09:26:16.808Z,7.17
2022-12-24T09:28:45.324Z,7.43
2022-12-24T09:31:14.952Z,9.87
2022-12-24T09:33:45.161Z,11.37
2022-12-24T09:36:15.777Z,10.30
2022-12-24T09:38:44.801Z,7.80
2022-12-24T09:41:15.193Z,7.63
2022-12-24T09:43:49.175Z,8.00
2022-12-24T09:46:26.579Z,7.30
2022-12-24T09:48:59.330Z,8.37
2022-12-24T09:51:35.657Z,7.97
2022-12-24T09:54:07.414Z,9.63
2022-12-24T09:56:40.503Z,7.90
2022-12-24T09:59:15.850Z,7.33
2022-12-24T10:01:44.716Z,7.80
2022-12-24T10:04:15.922Z,7.83
2022-12-24T10:06:53.793Z,8.23
2022-12-24T10:09:32.717Z,7.27
2022-12-24T10:12:07.745Z,7.87
2022-12-24T10:14:52.770Z,7.70
2022-12-24T10:17:35.163Z,7.90
2022-12-24T10:20:22.903Z,6.90
2022-12-24T10:22:58.600Z,7.83
2022-12-24T10:25:32.321Z,6.53
2022-12-24T10:28:04.077Z,8.10
2022-12-24T10:30:32.607Z,5.87
2022-12-24T10:33:01.276Z,8.30
2022-12-24T10:35:33.926Z,7.63
2022-12-24T10:38:04.657Z,7.37
2022-12-24T10:40:38.796Z,8.00
2022-12-24T10:43:16.188Z,10.27
2022-12-24T10:45:48.168Z,9.30
2022-12-24T10:48:24.490Z,6.43
2022-12-24T10:50:57.501Z,7.40
2022-12-24T10:53:35.709Z,7.47
2022-12-24T10:56:07.052Z,7.47
2022-12-24T10:58:36.206Z,7.63
2022-12-24T11:01:06.016Z,6.50
2022-12-24T11:03:36.471Z,6.70
2022-12-24T11:06:10.121Z,6.27
2022-12-24T11:08:43.419Z,9.30
2022-12-24T11:11:15.195Z,6.93
2022-12-24T11:13:46.667Z,6.03
2022-12-24T11:16:22.701Z,6.37
2022-12-24T11:18:53.735Z,5.93
2022-12-24T11:21:27.328Z,7.83
2022-12-24T11:24:00.887Z,7.47
2022-12-24T11:26:31.979Z,9.47
2022-12-24T11:29:14.924Z,10.43
2022-12-24T11:31:44.099Z,7.87
2022-12-24T11:34:34.062Z,10.03
2022-12-24T11:37:14.928Z,6.63
2022-12-24T11:39:49.068Z,6.97
2022-12-24T11:42:35.583Z,8.23
2022-12-24T11:45:07.324Z,6.83
2022-12-24T11:47:41.472Z,5.60
2022-12-24T11:50:28.653Z,5.70
2022-12-24T11:53:08.800Z,6.70
2022-12-24T11:55:46.688Z,8.13
2022-12-24T11:58:27.091Z,6.83
2022-12-24T12:01:06.579Z,10.57
2022-12-24T12:03:43.808Z,7.07
2022-12-24T12:06:34.708Z,8.90
2022-12-24T12:09:07.070Z,10.23
2022-12-24T12:11:40.052Z,7.30
2022-12-24T12:14:17.842Z,6.87
2022-12-24T12:17:04.211Z,12.03
2022-12-24T12:19:40.941Z,8.00
2022-12-24T12:22:18.074Z,12.60
2022-12-24T12:24:53.124Z,9.37
2022-12-24T12:27:29.782Z,12.80
2022-12-24T12:30:02.886Z,11.33
2022-12-24T12:32:44.936Z,9.00
2022-12-24T12:35:24.525Z,14.07
2022-12-24T12:37:58.480Z,14.43
2022-12-24T12:40:48.198Z,10.60
2022-12-24T12:43:30.516Z,10.83
2022-12-24T12:46:08.338Z,12.10
2022-12-24T12:48:54.560Z,13.20
2022-12-24T12:51:34.125Z,13.30
2022-12-24T12:54:22.472Z,10.63
2022-12-24T12:56:56.584Z,12.33
2022-12-24T12:59:34.500Z,12.20
2022-12-24T13:02:14.052Z,10.23
2022-12-24T13:05:15.562Z,13.70
2022-12-24T13:08:00.941Z,10.53
2022-12-24T13:10:58.694Z,8.47
2022-12-24T13:13:52.235Z,11.53
2022-12-24T13:16:53.922Z,13.27
2022-12-24T13:19:44.523Z,9.77
2022-12-24T13:22:18.078Z,15.77
2022-12-24T13:24:52.264Z,13.40
2022-12-24T13:27:25.290Z,8.70
2022-12-24T13:29:57.088Z,12.10
2022-12-24T13:32:57.341Z,11.57
2022-12-24T13:35:37.539Z,10.10
2022-12-24T13:38:43.970Z,9.57
2022-12-24T13:41:58.222Z,9.70
2022-12-24T13:44:39.597Z,10.97
2022-12-24T13:47:31.726Z,10.40
2022-12-24T13:50:22.806Z,12.47
2022-12-24T13:52:54.171Z,14.27
2022-12-24T13:55:23.568Z,10.33
2022-12-24T13:57:58.807Z,9.30
2022-12-24T14:00:32.299Z,9.07
2022-12-24T14:03:06.168Z,14.17
2022-12-24T14:05:40.390Z,9.90
2022-12-24T14:08:12.801Z,13.23
2022-12-24T14:10:43.714Z,11.33
2022-12-24T14:13:45.286Z,10.67
2022-12-24T14:16:16.532Z,9.97
2022-12-24T14:18:50.075Z,8.03
2022-12-24T14:21:25.225Z,10.53
2022-12-24T14:23:57.162Z,6.40
2022-12-24T14:26:30.523Z,6.23
2022-12-24T14:29:01.428Z,8.57
2022-12-24T14:31:29.971Z,11.00
2022-12-24T14:34:08.401Z,7.67
2022-12-24T14:36:38.718Z,7.57
2022-12-24T14:39:10.629Z,9.60
2022-12-24T14:41:49.214Z,6.77
2022-12-24T14:44:35.523Z,9.83
2022-12-24T14:47:16.902Z,9.73
2022-12-24T14:50:01.809Z,9.97
2022-12-24T14:53:04.614Z,7.83
2022-12-24T14:55:41.206Z,6.70
2022-12-24T14:58:25.700Z,8.67
2022-12-24T15:00:56.113Z,9.07
2022-12-24T15:03:26.097Z,10.53
2022-12-24T15:05:57.998Z,7.60
2022-12-24T15:08:34.240Z,8.90
2022-12-24T15:11:06.477Z,5.67
2022-12-24T15:13:38.555Z,13.33
2022-12-24T15:16:09.768Z,10.50
2022-12-24T15:18:43.327Z,9.77
2022-12-24T15:21:19.935Z,8.60
2022-12-24T15:23:51.892Z,7.13
2022-12-24T15:26:27.102Z,10.07
2022-12-24T15:29:02.677Z,8.60
2022-12-24T15:31:33.023Z,8.47
2022-12-24T15:34:01.758Z,6.70
2022-12-24T15:36:33.090Z,8.27
2022-12-24T15:39:06.798Z,8.97
2022-12-24T15:41:59.615Z,8.87
2022-12-24T15:44:29.469Z,8.30
2022-12-24T15:47:00.641Z,5.10
2022-12-24T15:49:30.767Z,10.93
2022-12-24T15:52:06.003Z,8.90
2022-12-24T15:54:38.283Z,10.60
2022-12-24T15:57:23.664Z,12.87
2022-12-24T15:59:54.685Z,11.03
2022-12-24T16:02:39.444Z,15.93
2022-12-24T16:05:35.971Z,14.83
2022-12-24T16:08:10.373Z,9.77
2022-12-24T16:10:43.060Z,9.53
2022-12-24T16:13:17.724Z,10.67
2022-12-24T16:15:49.943Z,14.40
2022-12-24T16:18:31.459Z,11.83
2022-12-24T16:21:00.670Z,12.10
2022-12-24T16:23:36.239Z,12.33
2022-12-24T16:26:06.404Z,14.70
2022-12-24T16:28:35.029Z,15.57
2022-12-24T16:31:03.817Z,10.83
2022-12-24T16:33:32.327Z,13.00
2022-12-24T16:36:00.859Z,13.20
2022-12-24T16:38:49.281Z,13.10
2022-12-24T16:41:19.151Z,14.13
2022-12-24T16:43:52.584Z,11.43
2022-12-24T16:46:21.073Z,11.87
2022-12-24T16:48:50.509Z,8.57
2022-12-24T16:51:18.936Z,10.40
2022-12-24T16:53:47.323Z,7.77
2022-12-24T16:56:17.526Z,8.37
2022-12-24T16:58:47.429Z,7.50
2022-12-24T17:01:16.098Z,9.17
2022-12-24T17:03:44.733Z,7.70
2022-12-24T17:06:13.158Z,10.63
2022-12-24T17:08:41.606Z,12.17
2022-12-24T17:11:10.055Z,9.23
2022-12-24T17:13:38.659Z,11.83
2022-12-24T17:16:09.237Z,11.77
2022-12-24T17:18:37.732Z,10.17
2022-12-24T17:21:07.191Z,9.80
2022-12-24T17:23:35.699Z,6.43
2022-12-24T17:26:10.671Z,7.00
2022-12-24T17:28:42.037Z,8.97
2022-12-24T17:31:14.070Z,6.20
2022-12-24T17:33:42.616Z,5.03
2022-12-24T17:36:11.894Z,6.07
2022-12-24T17:38:40.373Z,10.83
2022-12-24T17:41:12.531Z,10.07
2022-12-24T17:43:40.948Z,14.00
2022-12-24T17:46:11.230Z,15.87
2022-12-24T17:48:41.092Z,14.27
2022-12-24T17:51:11.127Z,11.50
2022-12-24T17:53:41.263Z,12.53
2022-12-24T17:56:16.310Z,12.57
2022-12-24T17:58:46.536Z,9.00
2022-12-24T18:01:16.740Z,12.87
2022-12-24T18:03:47.646Z,16.30
2022-12-24T18:06:16.979Z,19.47
2022-12-24T18:08:47.014Z,18.03
2022-12-24T18:11:17.459Z,17.30
2022-12-24T18:13:46.918Z,27.67
2022-12-24T18:16:18.518Z,27.77
2022-12-24T18:18:49.073Z,17.93
2022-12-24T18:21:19.231Z,14.40
2022-12-24T18:23:49.200Z,12.53
2022-12-24T18:26:18.929Z,13.73
2022-12-24T18:28:48.659Z,12.07
2022-12-24T18:31:19.104Z,13.10
2022-12-24T18:33:50.332Z,10.37
2022-12-24T18:36:19.312Z,13.93
2022-12-24T18:38:48.229Z,11.87
2022-12-24T18:41:18.641Z,13.00
2022-12-24T18:43:47.317Z,13.70
2022-12-24T18:46:18.992Z,14.73
2022-12-24T18:48:49.268Z,11.27
2022-12-24T18:51:18.831Z,12.60
2022-12-24T18:53:47.335Z,17.47
2022-12-24T18:56:17.835Z,14.87
2022-12-24T18:58:47.217Z,13.53
2022-12-24T19:01:18.087Z,14.33
2022-12-24T19:03:49.539Z,15.93
2022-12-24T19:06:18.246Z,11.30
2022-12-24T19:08:57.130Z,12.57
2022-12-24T19:11:27.916Z,16.83
2022-12-24T19:13:58.290Z,12.67
2022-12-24T19:16:27.812Z,10.23
2022-12-24T19:18:58.424Z,14.63
2022-12-24T19:21:27.062Z,13.70
2022-12-24T19:23:55.545Z,13.73
2022-12-24T19:26:24.227Z,10.93
2022-12-24T19:28:53.296Z,9.87
2022-12-24T19:31:25.654Z,10.93
2022-12-24T19:33:56.601Z,13.50
2022-12-24T19:36:29.024Z,11.47
2022-12-24T19:38:57.608Z,10.80
2022-12-24T19:41:28.222Z,11.30
2022-12-24T19:43:58.987Z,12.97
2022-12-24T19:46:29.813Z,12.57
2022-12-24T19:49:00.585Z,14.33
2022-12-24T19:51:31.024Z,13.70
2022-12-24T19:54:00.954Z,20.80
2022-12-24T19:56:33.014Z,16.73
2022-12-24T19:59:02.846Z,14.70
2022-12-24T20:01:33.362Z,21.83
2022-12-24T20:04:03.895Z,13.50
2022-12-24T20:06:36.550Z,19.07
2022-12-24T20:09:08.642Z,17.40
2022-12-24T20:11:37.165Z,20.60
2022-12-24T20:14:07.472Z,13.97
2022-12-24T20:16:37.035Z,16.20
2022-12-24T20:19:07.755Z,15.20
2022-12-24T20:21:38.217Z,14.43
2022-12-24T20:24:07.801Z,15.53
2022-12-24T20:26:36.854Z,15.57
2022-12-24T20:29:06.630Z,17.40
2022-12-24T20:31:35.745Z,11.87
2022-12-24T20:34:05.712Z,14.83
2022-12-24T20:36:34.877Z,14.30
2022-12-24T20:39:06.009Z,15.00
2022-12-24T20:41:34.908Z,16.13
2022-12-24T20:44:04.822Z,15.20
2022-12-24T20:46:34.990Z,16.03
2022-12-24T20:49:03.777Z,12.93
2022-12-24T20:51:32.657Z,16.67
2022-12-24T20:54:02.381Z,14.17
2022-12-24T20:56:32.694Z,11.83
2022-12-24T20:59:02.405Z,13.33
2022-12-24T21:01:31.166Z,11.70
2022-12-24T21:04:04.953Z,12.50
2022-12-24T21:06:34.287Z,16.87
2022-12-24T21:09:03.127Z,14.53
2022-12-24T21:11:49.504Z,15.90
2022-12-24T21:14:19.902Z,12.10
2022-12-24T21:16:48.943Z,18.13
2022-12-24T21:19:20.975Z,13.40
2022-12-24T21:21:49.670Z,15.70
2022-12-24T21:24:18.642Z,18.10
2022-12-24T21:26:48.678Z,12.20
2022-12-24T21:29:17.108Z,19.80
2022-12-24T21:31:46.056Z,17.73
2022-12-24T21:34:15.120Z,14.30
2022-12-24T21:36:43.524Z,16.63
2022-12-24T21:39:13.116Z,13.33
2022-12-24T21:41:41.589Z,17.53
2022-12-24T21:44:11.515Z,17.23
2022-12-24T21:46:40.280Z,16.33
2022-12-24T21:49:28.891Z,17.03
2022-12-24T21:51:57.531Z,14.43
2022-12-24T21:54:27.820Z,18.63
2022-12-24T21:57:16.011Z,17.73
2022-12-24T21:59:46.516Z,18.10
2022-12-24T22:02:16.748Z,15.00
2022-12-24T22:04:46.623Z,17.47
2022-12-24T22:07:45.896Z,11.97
2022-12-24T22:10:33.339Z,10.37
2022-12-24T22:13:06.570Z,14.57
2022-12-24T22:15:38.377Z,13.67
2022-12-24T22:18:08.388Z,14.33
2022-12-24T22:20:37.333Z,16.03
2022-12-24T22:23:05.939Z,15.80
2022-12-24T22:25:35.019Z,13.63
2022-12-24T22:28:03.902Z,17.53
2022-12-24T22:30:32.651Z,15.10
2022-12-24T22:33:02.738Z,14.87
2022-12-24T22:35:31.741Z,14.27
2022-12-24T22:38:00.717Z,12.87
2022-12-24T22:40:29.306Z,13.77
2022-12-24T22:42:57.798Z,13.60
2022-12-24T22:45:26.204Z,14.00
2022-12-24T22:47:54.642Z,11.30
2022-12-24T22:50:24.888Z,13.57
2022-12-24T22:52:54.121Z,15.30
2022-12-24T22:55:22.690Z,13.83
2022-12-24T22:57:51.058Z,15.23
2022-12-24T23:00:39.745Z,15.13
2022-12-24T23:03:08.845Z,17.73
2022-12-24T23:05:39.792Z,16.33
2022-12-24T23:08:08.882Z,15.93
2022-12-24T23:10:37.925Z,15.93
2022-12-24T23:13:24.104Z,10.77
2022-12-24T23:15:52.684Z,12.53
2022-12-24T23:18:21.096Z,13.23
2022-12-24T23:20:50.937Z,13.40
2022-12-24T23:23:19.502Z,9.50
2022-12-24T23:25:47.984Z,9.03
2022-12-24T23:28:16.442Z,10.67
2022-12-24T23:30:44.983Z,11.50
2022-12-24T23:33:13.491Z,12.47
2022-12-24T23:35:41.904Z,12.57
2022-12-24T23:38:11.693Z,15.60
2022-12-24T23:40:43.585Z,12.73
2022-12-24T23:43:12.126Z,15.50
2022-12-24T23:45:40.670Z,14.43
2022-12-24T23:48:09.117Z,14.63
2022-12-24T23:50:38.012Z,12.87
2022-12-24T23:53:06.466Z,13.47
2022-12-24T23:55:36.425Z,12.70
2022-12-24T23:58:05.764Z,11.37
